Pampero — V7JG5 — position and weather

sailwx.info

Track history (hours):
 
Tides and Currents Weather Stations Pressure Air Temp Water Temp Dewpoint Dewpoint Depression Visibility Wind Speed Wind Dir Waves Ship Positions

Pampero

Last reported at 2017-Dec-27 17:45 UTC. Time now 2018-Jan-22 22:07 UTC.
Position N 09°11' W 079°53'.
Warning: this ship's position is 26 days out of date.

Length 226 m; draft 11.8 m.

Type: Tanker. MMSI: 538006047.

Date/timePositionNaut miles runAvg speedWind from/ knotsBaromVisibWave heightAir tempDewpointWater temp
2017-Dec-27 17:45N 09°11' W 079°53'310.1
2017-Dec-27 17:26N 09°13' W 079°55'1 1.8
2017-Dec-27 17:01N 09°13' W 079°56'0 0.1
2017-Dec-27 16:27N 09°13' W 079°56'0 0.0
2017-Dec-27 16:00N 09°13' W 079°56'0 0.1
2017-Dec-27 15:30N 09°13' W 079°56'0 0.0
2017-Dec-27 14:54N 09°13' W 079°56'0 0.0
2017-Dec-27 14:30N 09°13' W 079°56'0 0.0
2017-Dec-27 13:57N 09°13' W 079°56'0 0.1
2017-Dec-27 13:27N 09°13' W 079°56'0 0.0
2017-Dec-27 12:39N 09°13' W 079°56'0 0.4
2017-Dec-27 12:30N 09°13' W 079°56'0 0.0
2017-Dec-27 11:48N 09°13' W 079°56'0 0.1
2017-Dec-27 11:21N 09°13' W 079°56'0 0.0
2017-Dec-27 11:00N 09°13' W 079°56'0 0.0
2017-Dec-27 10:15N 09°13' W 079°56'0 0.0
2017-Dec-27 10:00N 09°13' W 079°56'0 0.0
2017-Dec-27 09:18N 09°13' W 079°56'0 0.0
2017-Dec-27 09:00N 09°13' W 079°56'0 0.0
2017-Dec-27 08:00N 09°13' W 079°56'0 0.0
2017-Dec-27 06:48N 09°13' W 079°56'0 0.0
2017-Dec-27 05:48N 09°13' W 079°56'0 0.2
2017-Dec-27 05:27N 09°13' W 079°56'0 0.4
2017-Dec-27 05:00N 09°13' W 079°56'1 2.1
2017-Dec-27 04:30N 09°14' W 079°55'2 3.3
2017-Dec-27 03:56N 09°16' W 079°55'0 0.6
2017-Dec-27 03:30N 09°16' W 079°55'0 0.5
2017-Dec-27 03:00N 09°17' W 079°55'0 0.3
2017-Dec-27 02:30N 09°17' W 079°55'1 1.6
2017-Dec-27 02:00N 09°18' W 079°55'2 4.0
2017-Dec-27 01:30N 09°19' W 079°55'2 4.4
2017-Dec-27 01:00N 09°22' W 079°55'3 6.1
2017-Dec-27 00:30N 09°25' W 079°55'4 7.0
2017-Dec-26 23:59N 09°28' W 079°56'2 4.0
2017-Dec-26 23:30N 09°30' W 079°56'1 1.2
2017-Dec-26 23:00N 09°31' W 079°56'1 1.2
2017-Dec-26 22:30N 09°31' W 079°56'2 3.2
2017-Dec-26 22:00N 09°31' W 079°54'1 1.1
2017-Dec-26 21:30N 09°31' W 079°54'1 2.4
2017-Dec-26 21:00N 09°31' W 079°55'2 4.9
2017-Dec-26 20:30N 09°29' W 079°57'1 1.2
2017-Dec-26 20:00N 09°30' W 079°56'1 1.1
2017-Dec-26 19:30N 09°30' W 079°56'0 1.0
2017-Dec-26 19:00N 09°30' W 079°56'1 1.0
2017-Dec-26 18:30N 09°30' W 079°55'1 1.2
2017-Dec-26 18:00N 09°30' W 079°55'5 9.8
2017-Dec-26 17:30N 09°35' W 079°53'  
2017-Dec-21 18:33N 29°21' W 094°44'1211.7
2017-Dec-21 17:34N 29°30' W 094°52'111.6
2017-Dec-21 17:30N 29°31' W 094°53'611.0
2017-Dec-21 17:00N 29°35' W 094°56'510.4
2017-Dec-21 16:30N 29°40' W 094°58'4 7.6
2017-Dec-21 16:00N 29°43' W 095°01'4 7.1
2017-Dec-21 15:30N 29°45' W 095°04'3 5.4
2017-Dec-21 15:00N 29°44' W 095°07'2 4.8
2017-Dec-21 14:30N 29°45' W 095°10'2 4.4
2017-Dec-21 14:00N 29°44' W 095°12'  
Track history (hours):
 
Tides and Currents Weather Stations Pressure Air Temp Water Temp Dewpoint Dewpoint Depression Visibility Wind Speed Wind Dir Waves Ship Positions

Pampero

Last reported at 2017-Dec-27 17:45 UTC. Time now 2018-Jan-22 22:07 UTC.
Position N 09°11' W 079°53'.
Warning: this ship's position is 26 days out of date.

Length 226 m; draft 11.8 m.

Type: Tanker. MMSI: 538006047.

Date/timePositionNaut miles runAvg speedWind from/ knotsBaromVisibWave heightAir tempDewpointWater temp
2017-Dec-27 17:45N 09°11' W 079°53'310.1
2017-Dec-27 17:26N 09°13' W 079°55'1 1.8
2017-Dec-27 17:01N 09°13' W 079°56'0 0.1
2017-Dec-27 16:27N 09°13' W 079°56'0 0.0
2017-Dec-27 16:00N 09°13' W 079°56'0 0.1
2017-Dec-27 15:30N 09°13' W 079°56'0 0.0
2017-Dec-27 14:54N 09°13' W 079°56'0 0.0
2017-Dec-27 14:30N 09°13' W 079°56'0 0.0
2017-Dec-27 13:57N 09°13' W 079°56'0 0.1
2017-Dec-27 13:27N 09°13' W 079°56'0 0.0
2017-Dec-27 12:39N 09°13' W 079°56'0 0.4
2017-Dec-27 12:30N 09°13' W 079°56'0 0.0
2017-Dec-27 11:48N 09°13' W 079°56'0 0.1
2017-Dec-27 11:21N 09°13' W 079°56'0 0.0
2017-Dec-27 11:00N 09°13' W 079°56'0 0.0
2017-Dec-27 10:15N 09°13' W 079°56'0 0.0
2017-Dec-27 10:00N 09°13' W 079°56'0 0.0
2017-Dec-27 09:18N 09°13' W 079°56'0 0.0
2017-Dec-27 09:00N 09°13' W 079°56'0 0.0
2017-Dec-27 08:00N 09°13' W 079°56'0 0.0
2017-Dec-27 06:48N 09°13' W 079°56'0 0.0
2017-Dec-27 05:48N 09°13' W 079°56'0 0.2
2017-Dec-27 05:27N 09°13' W 079°56'0 0.4
2017-Dec-27 05:00N 09°13' W 079°56'1 2.1
2017-Dec-27 04:30N 09°14' W 079°55'2 3.3
2017-Dec-27 03:56N 09°16' W 079°55'0 0.6
2017-Dec-27 03:30N 09°16' W 079°55'0 0.5
2017-Dec-27 03:00N 09°17' W 079°55'0 0.3
2017-Dec-27 02:30N 09°17' W 079°55'1 1.6
2017-Dec-27 02:00N 09°18' W 079°55'2 4.0
2017-Dec-27 01:30N 09°19' W 079°55'2 4.4
2017-Dec-27 01:00N 09°22' W 079°55'3 6.1
2017-Dec-27 00:30N 09°25' W 079°55'4 7.0
2017-Dec-26 23:59N 09°28' W 079°56'2 4.0
2017-Dec-26 23:30N 09°30' W 079°56'1 1.2
2017-Dec-26 23:00N 09°31' W 079°56'1 1.2
2017-Dec-26 22:30N 09°31' W 079°56'2 3.2
2017-Dec-26 22:00N 09°31' W 079°54'1 1.1
2017-Dec-26 21:30N 09°31' W 079°54'1 2.4
2017-Dec-26 21:00N 09°31' W 079°55'2 4.9
2017-Dec-26 20:30N 09°29' W 079°57'1 1.2
2017-Dec-26 20:00N 09°30' W 079°56'1 1.1
2017-Dec-26 19:30N 09°30' W 079°56'0 1.0
2017-Dec-26 19:00N 09°30' W 079°56'1 1.0
2017-Dec-26 18:30N 09°30' W 079°55'1 1.2
2017-Dec-26 18:00N 09°30' W 079°55'5 9.8
2017-Dec-26 17:30N 09°35' W 079°53'  
2017-Dec-21 18:33N 29°21' W 094°44'1211.7
2017-Dec-21 17:34N 29°30' W 094°52'111.6
2017-Dec-21 17:30N 29°31' W 094°53'611.0
2017-Dec-21 17:00N 29°35' W 094°56'510.4
2017-Dec-21 16:30N 29°40' W 094°58'4 7.6
2017-Dec-21 16:00N 29°43' W 095°01'4 7.1
2017-Dec-21 15:30N 29°45' W 095°04'3 5.4
2017-Dec-21 15:00N 29°44' W 095°07'2 4.8
2017-Dec-21 14:30N 29°45' W 095°10'2 4.4
2017-Dec-21 14:00N 29°44' W 095°12'  

Dump ship's entire track history